Ana Sayfa
METAR-TAF:

METAR-TAF

Havaalanları :

Musoma, Tanzanya

Enlem: 01-30S, Boylam: 033-48E, yükseklik: 1147 m

Güncel hava durumu gözlemi

Rapor saat 19:00 UTC de 1 saat ve 16 dakika önce yapıldı.
Sakin rüzgar
Sıcaklık 21°C
Nem 88%
Basınç 1019 hPa
Görüş mesafesi 10 km veya daha fazla
1400 ft yükseklikte parçalı bulutlu
1600 ft yükseklikte az bulutlu, Kümülonimbus.
8000 ft yükseklikte parçalı çok bulutlu

METAR: HTMU 311900Z 00000KT 9999 SCT014 FEW016CB BKN080 21/19 Q1019

Saat: 23:16 (20:16 UTC)


TAF: eksik

4.000'den fazla havaalanı için hava durumu gözlemleri ve tahminleri (METAR ve TAF raporları).

Kullanılabilir istasyonlar harita üzerinde sarı ve kırmızı noktalarla gösterilir.

İstasyonun adını görmek için fareyi noktanın üzerinde gezdirin.

Sonrasında hava gözlem ve tahminlerini görmek için tıklayın.

Haritayı değiştirmek için: yaklaştırmak için siyah artı işaretli yeşil düğmeye ve uzaklaştırmak için de eksi işaretli düğmeye hızla tıklayın; bitişik haritalar için yeşil okları kullanın.


METAR-TAF: